Terminal Aerodrome Forecast
Issued by NWS

Home | Current Version | Previous Version | Text Only | Print | Product List | Glossary On
Versions: 1 2 3 4 5 6 7 8 9 10 11 12 13 14 15 16 17 18 19 20 21 22 23
007
FTUS46 KSGX 262015 AAA
TAFSAN
TAF AMD
KSAN 262015Z 2620/2724 26010KT P6SM SCT250
     FM270100 VRB06KT P6SM SCT012 SCT250
     FM270800 VRB06KT P6SM BKN012
     FM271600 VRB06KT P6SM SCT018 SCT250
     FM271800 29010KT P6SM FEW020 SCT250=

USA.gov is the U.S. government's official web portal to all federal, state and local government web resources and services.